3A4 weather

Southeast Greensboro Airport
Greensboro, North Carolina, United States

Public forecast

Using degrees Fahrenheit for public forecast. Weather courtesy of forecast.io.

METAR (pilot weather report)

Closest report is Burlington Alamance Regional Airport, 12.1 nm (22.3 km) ENE. Retrieved 2019/07/21 21:54 UTC (52 minutes ago):

KBUY 212154Z AUTO 22008KT 10SM SCT060 35/19 A2994 RMK AO2 SLP129 T03500194

TAF (pilot weather forecast)

Closest forecast is Piedmont Triad International Airport, 15.4 nm (28.5 km) NW. Retrieved 2019/07/21 18:24 UTC (4 hours ago):

TAF KGSO 211723Z 2118/2218 25010G15KT P6SM FEW250 FM220000 22007KT P6SM FEW200 FM221500 22008G13KT P6SM FEW250